sensor_id;sensor_type;location;lat;lon;timestamp;temperature;humidity
56234;DHT22;42141;53.240;6.580;2022-11-03T00:01:08;11.20;99.90
56234;DHT22;42141;53.240;6.580;2022-11-03T00:03:34;11.20;99.90
56234;DHT22;42141;53.240;6.580;2022-11-03T00:06:00;11.20;99.90
56234;DHT22;42141;53.240;6.580;2022-11-03T00:08:30;11.20;99.90
56234;DHT22;42141;53.240;6.580;2022-11-03T00:11:04;11.20;99.90
56234;DHT22;42141;53.240;6.580;2022-11-03T00:13:30;11.20;99.90
56234;DHT22;42141;53.240;6.580;2022-11-03T00:15:56;11.20;99.90
56234;DHT22;42141;53.240;6.580;2022-11-03T00:18:22;11.20;99.90
56234;DHT22;42141;53.240;6.580;2022-11-03T00:21:02;11.20;99.90
56234;DHT22;42141;53.240;6.580;2022-11-03T00:23:30;11.50;99.90
56234;DHT22;42141;53.240;6.580;2022-11-03T00:28:36;11.20;99.90
56234;DHT22;42141;53.240;6.580;2022-11-03T00:31:07;11.20;99.90
56234;DHT22;42141;53.240;6.580;2022-11-03T00:33:33;11.20;99.90
56234;DHT22;42141;53.240;6.580;2022-11-03T00:36:00;11.40;99.90
56234;DHT22;42141;53.240;6.580;2022-11-03T00:38:27;11.40;99.90
56234;DHT22;42141;53.240;6.580;2022-11-03T00:40:56;11.20;99.90
56234;DHT22;42141;53.240;6.580;2022-11-03T00:43:24;11.20;99.90
56234;DHT22;42141;53.240;6.580;2022-11-03T00:45:50;11.60;99.90
56234;DHT22;42141;53.240;6.580;2022-11-03T00:48:16;12.00;99.90
56234;DHT22;42141;53.240;6.580;2022-11-03T00:51:15;11.20;99.90
56234;DHT22;42141;53.240;6.580;2022-11-03T00:53:46;11.20;99.90
56234;DHT22;42141;53.240;6.580;2022-11-03T00:56:23;11.20;99.90
56234;DHT22;42141;53.240;6.580;2022-11-03T00:58:50;11.10;99.90
56234;DHT22;42141;53.240;6.580;2022-11-03T01:01:20;11.10;99.90
56234;DHT22;42141;53.240;6.580;2022-11-03T01:03:49;11.10;99.90
56234;DHT22;42141;53.240;6.580;2022-11-03T01:06:36;11.50;99.90
56234;DHT22;42141;53.240;6.580;2022-11-03T01:09:26;11.50;99.90
56234;DHT22;42141;53.240;6.580;2022-11-03T01:14:26;11.00;99.90
56234;DHT22;42141;53.240;6.580;2022-11-03T01:16:52;11.80;99.90
56234;DHT22;42141;53.240;6.580;2022-11-03T01:19:18;11.70;99.90
56234;DHT22;42141;53.240;6.580;2022-11-03T01:21:44;10.90;99.90
56234;DHT22;42141;53.240;6.580;2022-11-03T01:24:10;10.90;99.90
56234;DHT22;42141;53.240;6.580;2022-11-03T01:26:36;10.90;99.90
56234;DHT22;42141;53.240;6.580;2022-11-03T01:29:01;10.90;99.90
56234;DHT22;42141;53.240;6.580;2022-11-03T01:31:28;10.90;99.90
56234;DHT22;42141;53.240;6.580;2022-11-03T01:33:55;11.40;99.90
56234;DHT22;42141;53.240;6.580;2022-11-03T01:36:21;10.30;99.90
56234;DHT22;42141;53.240;6.580;2022-11-03T01:38:47;11.70;99.90
56234;DHT22;42141;53.240;6.580;2022-11-03T01:41:21;11.80;99.90
56234;DHT22;42141;53.240;6.580;2022-11-03T01:43:50;10.90;99.90
56234;DHT22;42141;53.240;6.580;2022-11-03T01:46:24;10.30;99.90
56234;DHT22;42141;53.240;6.580;2022-11-03T01:49:08;10.90;99.90
56234;DHT22;42141;53.240;6.580;2022-11-03T01:51:36;10.90;99.90
56234;DHT22;42141;53.240;6.580;2022-11-03T01:54:07;10.80;99.90
56234;DHT22;42141;53.240;6.580;2022-11-03T01:56:39;11.60;99.90
56234;DHT22;42141;53.240;6.580;2022-11-03T01:59:06;10.90;99.90
56234;DHT22;42141;53.240;6.580;2022-11-03T02:01:32;10.80;99.90
56234;DHT22;42141;53.240;6.580;2022-11-03T02:04:03;11.60;99.90
56234;DHT22;42141;53.240;6.580;2022-11-03T02:06:32;10.90;99.90
56234;DHT22;42141;53.240;6.580;2022-11-03T02:09:04;11.30;99.90
56234;DHT22;42141;53.240;6.580;2022-11-03T02:11:32;10.70;99.90
56234;DHT22;42141;53.240;6.580;2022-11-03T02:14:17;10.80;99.90
56234;DHT22;42141;53.240;6.580;2022-11-03T02:16:48;11.90;99.90
56234;DHT22;42141;53.240;6.580;2022-11-03T02:19:42;10.80;99.90
56234;DHT22;42141;53.240;6.580;2022-11-03T02:22:40;10.80;99.90
56234;DHT22;42141;53.240;6.580;2022-11-03T02:27:43;10.70;99.90
56234;DHT22;42141;53.240;6.580;2022-11-03T02:30:09;11.50;99.90
56234;DHT22;42141;53.240;6.580;2022-11-03T02:35:28;10.80;99.90
56234;DHT22;42141;53.240;6.580;2022-11-03T02:37:58;10.80;99.90
56234;DHT22;42141;53.240;6.580;2022-11-03T02:40:36;10.80;99.90
56234;DHT22;42141;53.240;6.580;2022-11-03T02:43:04;10.80;99.90
56234;DHT22;42141;53.240;6.580;2022-11-03T02:45:31;10.90;99.90
56234;DHT22;42141;53.240;6.580;2022-11-03T02:47:59;10.80;99.90
56234;DHT22;42141;53.240;6.580;2022-11-03T02:50:32;10.80;99.90
56234;DHT22;42141;53.240;6.580;2022-11-03T02:52:59;10.80;99.90
56234;DHT22;42141;53.240;6.580;2022-11-03T02:58:08;10.80;99.90
56234;DHT22;42141;53.240;6.580;2022-11-03T03:00:44;10.70;99.90
56234;DHT22;42141;53.240;6.580;2022-11-03T03:03:15;11.10;99.90
56234;DHT22;42141;53.240;6.580;2022-11-03T03:05:44;10.80;99.90
56234;DHT22;42141;53.240;6.580;2022-11-03T03:08:11;10.80;99.90
56234;DHT22;42141;53.240;6.580;2022-11-03T03:10:43;11.30;99.90
56234;DHT22;42141;53.240;6.580;2022-11-03T03:13:14;10.80;99.90
56234;DHT22;42141;53.240;6.580;2022-11-03T03:18:25;10.90;99.90
56234;DHT22;42141;53.240;6.580;2022-11-03T03:21:00;10.90;99.90
56234;DHT22;42141;53.240;6.580;2022-11-03T03:23:38;10.90;99.90
56234;DHT22;42141;53.240;6.580;2022-11-03T03:26:23;10.90;99.90
56234;DHT22;42141;53.240;6.580;2022-11-03T03:28:58;11.00;99.90
56234;DHT22;42141;53.240;6.580;2022-11-03T03:31:26;11.30;99.90
56234;DHT22;42141;53.240;6.580;2022-11-03T03:33:53;11.00;99.90
56234;DHT22;42141;53.240;6.580;2022-11-03T03:36:23;11.00;99.90
56234;DHT22;42141;53.240;6.580;2022-11-03T03:38:54;12.20;99.90
56234;DHT22;42141;53.240;6.580;2022-11-03T03:41:23;11.10;99.90
56234;DHT22;42141;53.240;6.580;2022-11-03T03:43:56;11.20;99.90
56234;DHT22;42141;53.240;6.580;2022-11-03T03:46:25;11.10;99.90
56234;DHT22;42141;53.240;6.580;2022-11-03T03:48:52;12.00;99.90
56234;DHT22;42141;53.240;6.580;2022-11-03T03:51:21;11.00;99.90
56234;DHT22;42141;53.240;6.580;2022-11-03T03:53:50;10.90;99.90
56234;DHT22;42141;53.240;6.580;2022-11-03T03:56:29;12.10;99.90
56234;DHT22;42141;53.240;6.580;2022-11-03T03:58:57;11.80;99.90
56234;DHT22;42141;53.240;6.580;2022-11-03T04:01:23;11.10;99.90
56234;DHT22;42141;53.240;6.580;2022-11-03T04:03:48;11.10;99.90
56234;DHT22;42141;53.240;6.580;2022-11-03T04:06:14;11.10;99.90
56234;DHT22;42141;53.240;6.580;2022-11-03T04:08:40;11.70;99.90
56234;DHT22;42141;53.240;6.580;2022-11-03T04:11:06;11.10;99.90
56234;DHT22;42141;53.240;6.580;2022-11-03T04:13:50;11.10;99.90
56234;DHT22;42141;53.240;6.580;2022-11-03T04:16:34;11.30;99.90
56234;DHT22;42141;53.240;6.580;2022-11-03T04:19:18;11.10;99.90
56234;DHT22;42141;53.240;6.580;2022-11-03T04:22:02;11.10;99.90
56234;DHT22;42141;53.240;6.580;2022-11-03T04:24:49;11.10;99.90
56234;DHT22;42141;53.240;6.580;2022-11-03T04:27:19;11.10;99.90
56234;DHT22;42141;53.240;6.580;2022-11-03T04:29:53;11.60;99.90
56234;DHT22;42141;53.240;6.580;2022-11-03T04:32:20;11.80;99.90
56234;DHT22;42141;53.240;6.580;2022-11-03T04:34:46;11.00;99.90
56234;DHT22;42141;53.240;6.580;2022-11-03T04:37:18;11.10;99.90
56234;DHT22;42141;53.240;6.580;2022-11-03T04:39:44;11.50;99.90
56234;DHT22;42141;53.240;6.580;2022-11-03T04:42:16;11.00;99.90
56234;DHT22;42141;53.240;6.580;2022-11-03T04:44:43;11.00;99.90
56234;DHT22;42141;53.240;6.580;2022-11-03T04:47:12;12.00;99.90
56234;DHT22;42141;53.240;6.580;2022-11-03T04:49:38;11.00;99.90
56234;DHT22;42141;53.240;6.580;2022-11-03T04:52:17;11.00;99.90
56234;DHT22;42141;53.240;6.580;2022-11-03T04:54:46;11.10;99.90
56234;DHT22;42141;53.240;6.580;2022-11-03T04:57:13;11.20;99.90
56234;DHT22;42141;53.240;6.580;2022-11-03T04:59:45;11.10;99.90
56234;DHT22;42141;53.240;6.580;2022-11-03T05:02:13;11.10;99.90
56234;DHT22;42141;53.240;6.580;2022-11-03T05:04:40;11.10;99.90
56234;DHT22;42141;53.240;6.580;2022-11-03T05:07:31;11.10;99.90
56234;DHT22;42141;53.240;6.580;2022-11-03T05:09:57;11.10;99.90
56234;DHT22;42141;53.240;6.580;2022-11-03T05:12:24;11.10;99.90
56234;DHT22;42141;53.240;6.580;2022-11-03T05:14:51;11.10;99.90
56234;DHT22;42141;53.240;6.580;2022-11-03T05:17:20;11.60;99.90
56234;DHT22;42141;53.240;6.580;2022-11-03T05:19:48;11.10;99.90
56234;DHT22;42141;53.240;6.580;2022-11-03T05:22:17;11.10;99.90
56234;DHT22;42141;53.240;6.580;2022-11-03T05:24:43;11.80;99.90
56234;DHT22;42141;53.240;6.580;2022-11-03T05:27:18;11.00;99.90
56234;DHT22;42141;53.240;6.580;2022-11-03T05:29:44;11.40;99.90
56234;DHT22;42141;53.240;6.580;2022-11-03T05:32:22;11.10;99.90
56234;DHT22;42141;53.240;6.580;2022-11-03T05:34:50;10.90;99.90
56234;DHT22;42141;53.240;6.580;2022-11-03T05:39:56;11.70;99.90
56234;DHT22;42141;53.240;6.580;2022-11-03T05:42:38;10.90;99.90
56234;DHT22;42141;53.240;6.580;2022-11-03T05:45:21;10.90;99.90
56234;DHT22;42141;53.240;6.580;2022-11-03T05:47:49;10.90;99.90
56234;DHT22;42141;53.240;6.580;2022-11-03T05:50:21;10.90;99.90
56234;DHT22;42141;53.240;6.580;2022-11-03T05:53:34;10.80;99.90
56234;DHT22;42141;53.240;6.580;2022-11-03T05:55:41;10.80;99.90
56234;DHT22;42141;53.240;6.580;2022-11-03T05:58:18;11.20;99.90
56234;DHT22;42141;53.240;6.580;2022-11-03T06:00:45;10.80;99.90
56234;DHT22;42141;53.240;6.580;2022-11-03T06:03:23;10.80;99.90
56234;DHT22;42141;53.240;6.580;2022-11-03T06:05:50;10.80;99.90
56234;DHT22;42141;53.240;6.580;2022-11-03T06:08:22;10.70;99.90
56234;DHT22;42141;53.240;6.580;2022-11-03T06:10:56;10.70;99.90
56234;DHT22;42141;53.240;6.580;2022-11-03T06:13:29;10.70;99.90
56234;DHT22;42141;53.240;6.580;2022-11-03T06:16:05;10.70;99.90
56234;DHT22;42141;53.240;6.580;2022-11-03T06:18:36;10.70;99.90
56234;DHT22;42141;53.240;6.580;2022-11-03T06:21:12;11.00;99.90
56234;DHT22;42141;53.240;6.580;2022-11-03T06:23:40;11.70;99.90
56234;DHT22;42141;53.240;6.580;2022-11-03T06:26:26;10.70;99.90
56234;DHT22;42141;53.240;6.580;2022-11-03T06:28:53;11.00;99.90
56234;DHT22;42141;53.240;6.580;2022-11-03T06:31:23;11.20;99.90
56234;DHT22;42141;53.240;6.580;2022-11-03T06:33:56;10.70;99.90
56234;DHT22;42141;53.240;6.580;2022-11-03T06:36:25;11.30;99.90
56234;DHT22;42141;53.240;6.580;2022-11-03T06:38:56;10.70;99.90
56234;DHT22;42141;53.240;6.580;2022-11-03T06:41:27;10.80;99.90
56234;DHT22;42141;53.240;6.580;2022-11-03T06:43:54;11.80;99.90
56234;DHT22;42141;53.240;6.580;2022-11-03T06:46:22;10.80;99.90
56234;DHT22;42141;53.240;6.580;2022-11-03T06:48:49;10.90;99.90
56234;DHT22;42141;53.240;6.580;2022-11-03T06:51:19;10.80;99.90
56234;DHT22;42141;53.240;6.580;2022-11-03T06:53:47;10.80;99.90
56234;DHT22;42141;53.240;6.580;2022-11-03T06:56:20;10.50;99.90
56234;DHT22;42141;53.240;6.580;2022-11-03T06:58:46;11.20;99.90
56234;DHT22;42141;53.240;6.580;2022-11-03T07:01:18;11.30;99.90
56234;DHT22;42141;53.240;6.580;2022-11-03T07:03:45;10.90;99.90
56234;DHT22;42141;53.240;6.580;2022-11-03T07:06:22;10.90;99.90
56234;DHT22;42141;53.240;6.580;2022-11-03T07:09:04;11.00;99.90
56234;DHT22;42141;53.240;6.580;2022-11-03T07:11:35;11.00;99.90
56234;DHT22;42141;53.240;6.580;2022-11-03T07:14:24;11.10;99.90
56234;DHT22;42141;53.240;6.580;2022-11-03T07:17:15;11.00;99.90
56234;DHT22;42141;53.240;6.580;2022-11-03T07:19:45;11.10;99.90
56234;DHT22;42141;53.240;6.580;2022-11-03T07:22:18;11.10;99.90
56234;DHT22;42141;53.240;6.580;2022-11-03T07:24:47;11.10;99.90
56234;DHT22;42141;53.240;6.580;2022-11-03T07:27:27;11.60;99.90
56234;DHT22;42141;53.240;6.580;2022-11-03T07:32:41;11.20;99.90
56234;DHT22;42141;53.240;6.580;2022-11-03T07:37:43;11.50;99.90
56234;DHT22;42141;53.240;6.580;2022-11-03T07:40:16;11.30;99.90
56234;DHT22;42141;53.240;6.580;2022-11-03T07:42:43;11.80;99.90
56234;DHT22;42141;53.240;6.580;2022-11-03T07:48:09;11.40;99.90
56234;DHT22;42141;53.240;6.580;2022-11-03T07:50:37;11.40;99.90
56234;DHT22;42141;53.240;6.580;2022-11-03T07:53:18;11.00;99.90
56234;DHT22;42141;53.240;6.580;2022-11-03T07:55:45;11.50;99.90
56234;DHT22;42141;53.240;6.580;2022-11-03T07:58:21;11.60;99.90
56234;DHT22;42141;53.240;6.580;2022-11-03T08:00:47;11.60;99.90
56234;DHT22;42141;53.240;6.580;2022-11-03T08:03:24;11.70;99.90
56234;DHT22;42141;53.240;6.580;2022-11-03T08:05:51;11.70;99.90
56234;DHT22;42141;53.240;6.580;2022-11-03T08:08:19;11.70;99.90
56234;DHT22;42141;53.240;6.580;2022-11-03T08:10:45;11.80;99.90
56234;DHT22;42141;53.240;6.580;2022-11-03T08:13:11;11.80;99.90
56234;DHT22;42141;53.240;6.580;2022-11-03T08:15:36;11.80;99.90
56234;DHT22;42141;53.240;6.580;2022-11-03T08:18:02;11.90;99.90
56234;DHT22;42141;53.240;6.580;2022-11-03T08:20:28;11.90;99.90
56234;DHT22;42141;53.240;6.580;2022-11-03T08:22:54;13.00;99.90
56234;DHT22;42141;53.240;6.580;2022-11-03T08:25:19;12.80;99.90
56234;DHT22;42141;53.240;6.580;2022-11-03T08:27:45;12.00;99.90
56234;DHT22;42141;53.240;6.580;2022-11-03T08:30:11;12.10;99.90
56234;DHT22;42141;53.240;6.580;2022-11-03T08:32:37;12.20;99.90
56234;DHT22;42141;53.240;6.580;2022-11-03T08:35:03;12.20;99.90
56234;DHT22;42141;53.240;6.580;2022-11-03T08:37:29;12.30;99.90
56234;DHT22;42141;53.240;6.580;2022-11-03T08:39:54;12.40;99.90
56234;DHT22;42141;53.240;6.580;2022-11-03T08:42:20;12.50;99.90
56234;DHT22;42141;53.240;6.580;2022-11-03T08:44:46;12.60;99.90
56234;DHT22;42141;53.240;6.580;2022-11-03T08:47:11;12.70;99.90
56234;DHT22;42141;53.240;6.580;2022-11-03T08:49:37;12.80;99.90
56234;DHT22;42141;53.240;6.580;2022-11-03T08:52:03;12.90;99.90
56234;DHT22;42141;53.240;6.580;2022-11-03T08:54:28;13.00;99.90
56234;DHT22;42141;53.240;6.580;2022-11-03T08:56:54;13.10;99.90
56234;DHT22;42141;53.240;6.580;2022-11-03T08:59:20;13.10;99.90
56234;DHT22;42141;53.240;6.580;2022-11-03T09:01:45;13.20;99.90
56234;DHT22;42141;53.240;6.580;2022-11-03T09:04:11;14.10;99.90
56234;DHT22;42141;53.240;6.580;2022-11-03T09:06:37;13.30;99.90
56234;DHT22;42141;53.240;6.580;2022-11-03T09:09:03;13.30;99.90
56234;DHT22;42141;53.240;6.580;2022-11-03T09:11:28;13.30;99.90
56234;DHT22;42141;53.240;6.580;2022-11-03T09:13:54;13.20;99.90
56234;DHT22;42141;53.240;6.580;2022-11-03T09:16:22;13.20;99.90
56234;DHT22;42141;53.240;6.580;2022-11-03T09:18:47;13.20;99.90
56234;DHT22;42141;53.240;6.580;2022-11-03T09:21:13;13.90;99.90
56234;DHT22;42141;53.240;6.580;2022-11-03T09:23:39;13.20;99.90
56234;DHT22;42141;53.240;6.580;2022-11-03T09:26:05;13.20;99.90
56234;DHT22;42141;53.240;6.580;2022-11-03T09:28:31;13.30;99.90
56234;DHT22;42141;53.240;6.580;2022-11-03T09:30:57;13.30;99.90
56234;DHT22;42141;53.240;6.580;2022-11-03T09:33:23;13.30;99.90
56234;DHT22;42141;53.240;6.580;2022-11-03T09:35:48;13.30;99.90
56234;DHT22;42141;53.240;6.580;2022-11-03T09:38:14;13.40;99.90
56234;DHT22;42141;53.240;6.580;2022-11-03T09:40:40;13.40;99.90
56234;DHT22;42141;53.240;6.580;2022-11-03T09:43:06;13.50;99.90
56234;DHT22;42141;53.240;6.580;2022-11-03T09:45:31;14.10;99.90
56234;DHT22;42141;53.240;6.580;2022-11-03T09:47:57;12.80;99.90
56234;DHT22;42141;53.240;6.580;2022-11-03T09:50:23;13.60;99.90
56234;DHT22;42141;53.240;6.580;2022-11-03T09:52:49;13.70;99.90
56234;DHT22;42141;53.240;6.580;2022-11-03T09:55:24;13.70;99.90
56234;DHT22;42141;53.240;6.580;2022-11-03T09:58:04;13.70;99.90
56234;DHT22;42141;53.240;6.580;2022-11-03T10:00:34;13.80;99.90
56234;DHT22;42141;53.240;6.580;2022-11-03T10:03:01;13.80;99.90
56234;DHT22;42141;53.240;6.580;2022-11-03T10:05:33;14.00;99.90
56234;DHT22;42141;53.240;6.580;2022-11-03T10:08:02;14.00;99.90
56234;DHT22;42141;53.240;6.580;2022-11-03T10:10:29;14.10;99.90
56234;DHT22;42141;53.240;6.580;2022-11-03T10:12:55;14.20;99.90
56234;DHT22;42141;53.240;6.580;2022-11-03T10:15:22;15.10;99.90
56234;DHT22;42141;53.240;6.580;2022-11-03T10:17:49;14.30;99.90
56234;DHT22;42141;53.240;6.580;2022-11-03T10:20:19;14.40;99.90
56234;DHT22;42141;53.240;6.580;2022-11-03T10:22:45;14.50;99.90
56234;DHT22;42141;53.240;6.580;2022-11-03T10:28:20;14.60;99.90
56234;DHT22;42141;53.240;6.580;2022-11-03T10:31:01;14.60;99.90
56234;DHT22;42141;53.240;6.580;2022-11-03T10:33:50;14.70;99.90
56234;DHT22;42141;53.240;6.580;2022-11-03T10:38:42;14.70;99.90
56234;DHT22;42141;53.240;6.580;2022-11-03T10:43:38;14.70;99.90
56234;DHT22;42141;53.240;6.580;2022-11-03T10:46:31;14.80;99.90
56234;DHT22;42141;53.240;6.580;2022-11-03T10:49:10;14.80;99.90
56234;DHT22;42141;53.240;6.580;2022-11-03T10:51:36;14.80;99.90
56234;DHT22;42141;53.240;6.580;2022-11-03T10:54:04;14.80;99.90
56234;DHT22;42141;53.240;6.580;2022-11-03T10:56:31;14.80;99.90
56234;DHT22;42141;53.240;6.580;2022-11-03T10:58:59;15.30;99.90
56234;DHT22;42141;53.240;6.580;2022-11-03T11:01:26;15.10;99.90
56234;DHT22;42141;53.240;6.580;2022-11-03T11:03:52;15.20;99.90
56234;DHT22;42141;53.240;6.580;2022-11-03T11:08:46;15.30;99.90
56234;DHT22;42141;53.240;6.580;2022-11-03T11:11:17;15.30;99.90
56234;DHT22;42141;53.240;6.580;2022-11-03T11:13:43;15.40;99.90
56234;DHT22;42141;53.240;6.580;2022-11-03T11:19:12;15.40;99.90
56234;DHT22;42141;53.240;6.580;2022-11-03T11:24:05;15.70;99.90
56234;DHT22;42141;53.240;6.580;2022-11-03T11:26:34;15.90;99.90
56234;DHT22;42141;53.240;6.580;2022-11-03T11:31:44;16.00;99.90
56234;DHT22;42141;53.240;6.580;2022-11-03T11:42:16;16.10;99.90
56234;DHT22;42141;53.240;6.580;2022-11-03T11:47:27;16.30;99.90
56234;DHT22;42141;53.240;6.580;2022-11-03T11:52:44;16.20;99.90
56234;DHT22;42141;53.240;6.580;2022-11-03T11:57:45;16.00;99.90
56234;DHT22;42141;53.240;6.580;2022-11-03T12:00:19;16.00;99.90
56234;DHT22;42141;53.240;6.580;2022-11-03T12:02:47;16.00;99.90
56234;DHT22;42141;53.240;6.580;2022-11-03T12:05:25;15.90;99.90
56234;DHT22;42141;53.240;6.580;2022-11-03T12:07:53;16.00;99.90
56234;DHT22;42141;53.240;6.580;2022-11-03T12:10:29;16.00;99.90
56234;DHT22;42141;53.240;6.580;2022-11-03T12:12:57;16.00;99.90
56234;DHT22;42141;53.240;6.580;2022-11-03T12:15:55;16.00;99.90
56234;DHT22;42141;53.240;6.580;2022-11-03T12:21:11;16.00;99.90
56234;DHT22;42141;53.240;6.580;2022-11-03T12:23:42;16.00;99.90
56234;DHT22;42141;53.240;6.580;2022-11-03T12:28:52;16.00;99.90
56234;DHT22;42141;53.240;6.580;2022-11-03T12:31:18;16.00;99.90
56234;DHT22;42141;53.240;6.580;2022-11-03T12:33:44;15.90;99.90
56234;DHT22;42141;53.240;6.580;2022-11-03T12:36:09;15.90;99.90
56234;DHT22;42141;53.240;6.580;2022-11-03T12:38:35;15.90;99.90
56234;DHT22;42141;53.240;6.580;2022-11-03T12:41:01;15.90;99.90
56234;DHT22;42141;53.240;6.580;2022-11-03T12:43:51;15.80;99.90
56234;DHT22;42141;53.240;6.580;2022-11-03T12:46:18;15.80;99.90
56234;DHT22;42141;53.240;6.580;2022-11-03T12:48:45;15.80;99.90
56234;DHT22;42141;53.240;6.580;2022-11-03T12:51:22;15.70;99.90
56234;DHT22;42141;53.240;6.580;2022-11-03T12:53:49;15.70;99.90
56234;DHT22;42141;53.240;6.580;2022-11-03T12:56:16;15.70;99.90
56234;DHT22;42141;53.240;6.580;2022-11-03T12:58:42;15.70;99.90
56234;DHT22;42141;53.240;6.580;2022-11-03T13:01:08;15.70;99.90
56234;DHT22;42141;53.240;6.580;2022-11-03T13:03:34;15.70;99.90
56234;DHT22;42141;53.240;6.580;2022-11-03T13:06:02;15.70;99.90
56234;DHT22;42141;53.240;6.580;2022-11-03T13:08:32;15.80;99.90
56234;DHT22;42141;53.240;6.580;2022-11-03T13:10:58;15.70;99.90
56234;DHT22;42141;53.240;6.580;2022-11-03T13:13:25;15.80;99.90
56234;DHT22;42141;53.240;6.580;2022-11-03T13:15:51;15.80;99.90
56234;DHT22;42141;53.240;6.580;2022-11-03T13:18:19;15.80;99.90
56234;DHT22;42141;53.240;6.580;2022-11-03T13:20:45;15.90;99.90
56234;DHT22;42141;53.240;6.580;2022-11-03T13:23:11;15.90;99.90
56234;DHT22;42141;53.240;6.580;2022-11-03T13:25:37;16.00;99.90
56234;DHT22;42141;53.240;6.580;2022-11-03T13:28:03;16.00;99.90
56234;DHT22;42141;53.240;6.580;2022-11-03T13:30:30;15.80;99.90
56234;DHT22;42141;53.240;6.580;2022-11-03T13:32:56;15.90;99.90
56234;DHT22;42141;53.240;6.580;2022-11-03T13:35:22;15.90;99.90
56234;DHT22;42141;53.240;6.580;2022-11-03T13:37:47;15.90;99.90
56234;DHT22;42141;53.240;6.580;2022-11-03T13:40:14;15.80;99.90
56234;DHT22;42141;53.240;6.580;2022-11-03T13:42:40;15.80;99.90
56234;DHT22;42141;53.240;6.580;2022-11-03T13:45:08;15.80;99.90
56234;DHT22;42141;53.240;6.580;2022-11-03T13:47:34;15.70;99.90
56234;DHT22;42141;53.240;6.580;2022-11-03T13:50:00;15.70;99.90
56234;DHT22;42141;53.240;6.580;2022-11-03T13:52:27;15.70;99.90
56234;DHT22;42141;53.240;6.580;2022-11-03T13:54:52;15.70;99.90
56234;DHT22;42141;53.240;6.580;2022-11-03T13:57:21;15.60;99.90
56234;DHT22;42141;53.240;6.580;2022-11-03T13:59:55;15.80;99.90
56234;DHT22;42141;53.240;6.580;2022-11-03T14:02:26;15.30;99.90
56234;DHT22;42141;53.240;6.580;2022-11-03T14:04:54;15.50;99.90
56234;DHT22;42141;53.240;6.580;2022-11-03T14:07:26;15.50;99.90
56234;DHT22;42141;53.240;6.580;2022-11-03T14:09:52;15.40;99.90
56234;DHT22;42141;53.240;6.580;2022-11-03T14:12:18;15.50;99.90
56234;DHT22;42141;53.240;6.580;2022-11-03T14:15:02;15.40;99.90
56234;DHT22;42141;53.240;6.580;2022-11-03T14:17:39;14.90;99.90
56234;DHT22;42141;53.240;6.580;2022-11-03T14:20:06;15.40;99.90
56234;DHT22;42141;53.240;6.580;2022-11-03T14:22:36;15.30;99.90
56234;DHT22;42141;53.240;6.580;2022-11-03T14:25:02;15.30;99.90
56234;DHT22;42141;53.240;6.580;2022-11-03T14:27:28;15.20;99.90
56234;DHT22;42141;53.240;6.580;2022-11-03T14:29:53;15.30;99.90
56234;DHT22;42141;53.240;6.580;2022-11-03T14:32:21;15.30;99.90
56234;DHT22;42141;53.240;6.580;2022-11-03T14:34:46;15.20;99.90
56234;DHT22;42141;53.240;6.580;2022-11-03T14:37:13;15.30;99.90
56234;DHT22;42141;53.240;6.580;2022-11-03T14:39:39;15.20;99.90
56234;DHT22;42141;53.240;6.580;2022-11-03T14:42:07;15.70;99.90
56234;DHT22;42141;53.240;6.580;2022-11-03T14:44:37;15.10;99.90
56234;DHT22;42141;53.240;6.580;2022-11-03T14:47:08;15.10;99.90
56234;DHT22;42141;53.240;6.580;2022-11-03T14:49:36;15.00;99.90
56234;DHT22;42141;53.240;6.580;2022-11-03T14:52:04;14.90;99.90
56234;DHT22;42141;53.240;6.580;2022-11-03T14:54:31;14.80;99.90
56234;DHT22;42141;53.240;6.580;2022-11-03T14:56:58;14.80;99.90
56234;DHT22;42141;53.240;6.580;2022-11-03T14:59:32;14.70;99.90
56234;DHT22;42141;53.240;6.580;2022-11-03T15:02:02;14.00;99.90
56234;DHT22;42141;53.240;6.580;2022-11-03T15:04:27;14.60;99.90
56234;DHT22;42141;53.240;6.580;2022-11-03T15:06:56;14.60;99.90
56234;DHT22;42141;53.240;6.580;2022-11-03T15:09:21;14.60;99.90
56234;DHT22;42141;53.240;6.580;2022-11-03T15:11:48;14.50;99.90
56234;DHT22;42141;53.240;6.580;2022-11-03T15:14:17;14.50;99.90
56234;DHT22;42141;53.240;6.580;2022-11-03T15:16:43;14.40;99.90
56234;DHT22;42141;53.240;6.580;2022-11-03T15:19:10;14.50;99.90
56234;DHT22;42141;53.240;6.580;2022-11-03T15:21:36;14.40;99.90
56234;DHT22;42141;53.240;6.580;2022-11-03T15:24:02;14.50;99.90
56234;DHT22;42141;53.240;6.580;2022-11-03T15:26:27;14.30;99.90
56234;DHT22;42141;53.240;6.580;2022-11-03T15:28:53;14.40;99.90
56234;DHT22;42141;53.240;6.580;2022-11-03T15:31:19;14.30;99.90
56234;DHT22;42141;53.240;6.580;2022-11-03T15:33:45;14.20;99.90
56234;DHT22;42141;53.240;6.580;2022-11-03T15:36:21;14.20;99.90
56234;DHT22;42141;53.240;6.580;2022-11-03T15:38:48;14.10;99.90
56234;DHT22;42141;53.240;6.580;2022-11-03T15:41:13;14.10;99.90
56234;DHT22;42141;53.240;6.580;2022-11-03T15:43:49;13.70;99.90
56234;DHT22;42141;53.240;6.580;2022-11-03T15:46:16;13.90;99.90
56234;DHT22;42141;53.240;6.580;2022-11-03T15:48:43;13.90;99.90
56234;DHT22;42141;53.240;6.580;2022-11-03T15:51:09;13.90;99.90
56234;DHT22;42141;53.240;6.580;2022-11-03T15:53:35;14.80;99.90
56234;DHT22;42141;53.240;6.580;2022-11-03T15:56:00;13.80;99.90
56234;DHT22;42141;53.240;6.580;2022-11-03T15:58:32;13.80;99.90
56234;DHT22;42141;53.240;6.580;2022-11-03T16:01:02;13.80;99.90
56234;DHT22;42141;53.240;6.580;2022-11-03T16:03:28;13.70;99.90
56234;DHT22;42141;53.240;6.580;2022-11-03T16:05:54;13.70;99.90
56234;DHT22;42141;53.240;6.580;2022-11-03T16:08:20;14.60;99.90
56234;DHT22;42141;53.240;6.580;2022-11-03T16:10:52;13.70;99.90
56234;DHT22;42141;53.240;6.580;2022-11-03T16:13:17;13.60;99.90
56234;DHT22;42141;53.240;6.580;2022-11-03T16:15:43;13.60;99.90
56234;DHT22;42141;53.240;6.580;2022-11-03T16:18:15;13.60;99.90
56234;DHT22;42141;53.240;6.580;2022-11-03T16:20:40;14.60;99.90
56234;DHT22;42141;53.240;6.580;2022-11-03T16:23:06;13.50;99.90
56234;DHT22;42141;53.240;6.580;2022-11-03T16:25:32;13.50;99.90
56234;DHT22;42141;53.240;6.580;2022-11-03T16:27:58;13.50;99.90
56234;DHT22;42141;53.240;6.580;2022-11-03T16:30:24;14.20;99.90
56234;DHT22;42141;53.240;6.580;2022-11-03T16:32:50;13.50;99.90
56234;DHT22;42141;53.240;6.580;2022-11-03T16:35:18;13.50;99.90
56234;DHT22;42141;53.240;6.580;2022-11-03T16:37:44;13.30;99.90
56234;DHT22;42141;53.240;6.580;2022-11-03T16:40:10;13.40;99.90
56234;DHT22;42141;53.240;6.580;2022-11-03T16:42:36;13.40;99.90
56234;DHT22;42141;53.240;6.580;2022-11-03T16:45:20;13.40;99.90
56234;DHT22;42141;53.240;6.580;2022-11-03T16:47:47;13.30;99.90
56234;DHT22;42141;53.240;6.580;2022-11-03T16:50:13;13.30;99.90
56234;DHT22;42141;53.240;6.580;2022-11-03T16:52:41;13.30;99.90